createdAt,value
2023-05-16T00:02:22.276Z,67.84
2023-05-16T00:04:50.902Z,68.26
2023-05-16T00:07:20.617Z,67.40
2023-05-16T00:09:48.893Z,67.47
2023-05-16T00:12:19.863Z,68.04
2023-05-16T00:14:48.822Z,68.27
2023-05-16T00:17:17.608Z,68.37
2023-05-16T00:19:47.474Z,68.48
2023-05-16T00:22:15.967Z,68.73
2023-05-16T00:24:46.330Z,69.41
2023-05-16T00:27:15.241Z,69.09
2023-05-16T00:29:43.872Z,69.62
2023-05-16T00:32:12.595Z,69.32
2023-05-16T00:34:41.544Z,69.54
2023-05-16T00:37:09.921Z,70.14
2023-05-16T00:39:38.648Z,69.50
2023-05-16T00:42:08.424Z,70.25
2023-05-16T00:44:37.041Z,70.04
2023-05-16T00:47:05.875Z,69.34
2023-05-16T00:49:34.379Z,70.54
2023-05-16T00:52:02.691Z,71.13
2023-05-16T00:54:31.499Z,70.45
2023-05-16T00:56:59.780Z,70.66
2023-05-16T00:59:29.600Z,70.95
2023-05-16T01:01:58.663Z,70.10
2023-05-16T01:04:27.103Z,69.77
2023-05-16T01:06:56.151Z,70.59
2023-05-16T01:09:24.937Z,70.96
2023-05-16T01:11:54.331Z,71.99
2023-05-16T01:14:23.908Z,70.50
2023-05-16T01:16:55.913Z,70.57
2023-05-16T01:19:40.751Z,70.65
2023-05-16T01:22:15.528Z,70.73
2023-05-16T01:24:45.111Z,72.15
2023-05-16T01:27:15.047Z,71.58
2023-05-16T01:29:43.318Z,71.68
2023-05-16T01:32:11.649Z,71.50
2023-05-16T01:34:40.259Z,73.00
2023-05-16T01:37:10.594Z,73.86
2023-05-16T01:39:39.726Z,74.51
2023-05-16T01:42:09.158Z,73.42
2023-05-16T01:44:39.176Z,72.94
2023-05-16T01:47:10.046Z,73.09
2023-05-16T01:49:40.869Z,72.36
2023-05-16T01:52:10.670Z,71.84
2023-05-16T01:54:39.640Z,70.71
2023-05-16T01:57:08.388Z,72.16
2023-05-16T01:59:37.088Z,71.07
2023-05-16T02:02:06.984Z,71.66
2023-05-16T02:04:35.609Z,71.40
2023-05-16T02:07:03.953Z,71.52
2023-05-16T02:09:32.361Z,71.59
2023-05-16T02:12:02.406Z,71.39
2023-05-16T02:14:30.738Z,71.36
2023-05-16T02:16:59.397Z,71.46
2023-05-16T02:19:29.183Z,71.58
2023-05-16T02:21:57.581Z,70.88
2023-05-16T02:24:26.322Z,71.88
2023-05-16T02:26:56.992Z,71.43
2023-05-16T02:29:26.024Z,71.44
2023-05-16T02:31:54.399Z,70.99
2023-05-16T02:34:22.993Z,70.27
2023-05-16T02:36:52.880Z,71.18
2023-05-16T02:39:23.697Z,71.38
2023-05-16T02:41:52.757Z,71.93
2023-05-16T02:44:21.105Z,71.40
2023-05-16T02:46:49.540Z,71.46
2023-05-16T02:49:20.759Z,71.17
2023-05-16T02:51:49.643Z,70.91
2023-05-16T02:54:19.756Z,71.59
2023-05-16T02:56:48.159Z,72.30
2023-05-16T02:59:16.504Z,72.08
2023-05-16T03:01:45.130Z,72.06
2023-05-16T03:04:13.582Z,72.03
2023-05-16T03:06:42.008Z,71.98
2023-05-16T03:09:10.652Z,70.91
2023-05-16T03:11:40.290Z,72.09
2023-05-16T03:14:08.587Z,72.33
2023-05-16T03:16:38.878Z,71.99
2023-05-16T03:19:07.512Z,72.00
2023-05-16T03:21:35.905Z,71.55
2023-05-16T03:24:04.992Z,71.82
2023-05-16T03:26:33.311Z,71.81
2023-05-16T03:29:06.662Z,72.44
2023-05-16T03:31:35.913Z,72.03
2023-05-16T03:34:04.270Z,72.35
2023-05-16T03:36:32.739Z,71.66
2023-05-16T03:39:01.318Z,71.29
2023-05-16T03:41:29.905Z,70.49
2023-05-16T03:43:58.300Z,71.48
2023-05-16T03:46:28.340Z,71.01
2023-05-16T03:48:56.736Z,71.83
2023-05-16T03:51:25.046Z,71.88
2023-05-16T03:53:53.625Z,72.22
2023-05-16T03:56:22.634Z,73.88
2023-05-16T03:58:50.850Z,72.84
2023-05-16T04:01:19.434Z,71.75
2023-05-16T04:03:50.816Z,71.32
2023-05-16T04:06:19.212Z,71.50
2023-05-16T04:08:47.813Z,70.77
2023-05-16T04:11:16.111Z,72.24
2023-05-16T04:13:44.461Z,71.73
2023-05-16T04:16:13.160Z,72.11
2023-05-16T04:18:41.538Z,71.91
2023-05-16T04:21:15.146Z,72.29
2023-05-16T04:23:43.936Z,72.48
2023-05-16T04:26:12.866Z,71.48
2023-05-16T04:28:41.295Z,71.46
2023-05-16T04:31:10.423Z,71.75
2023-05-16T04:33:38.813Z,71.08
2023-05-16T04:36:07.621Z,71.26
2023-05-16T04:38:37.874Z,71.12
2023-05-16T04:41:06.663Z,70.68
2023-05-16T04:43:35.129Z,71.42
2023-05-16T04:46:04.156Z,71.41
2023-05-16T04:48:32.726Z,71.07
2023-05-16T04:51:01.033Z,71.35
2023-05-16T04:53:29.783Z,71.61
2023-05-16T04:56:01.725Z,71.75
2023-05-16T04:58:30.251Z,71.16
2023-05-16T05:01:01.659Z,71.08
2023-05-16T05:03:30.654Z,71.17
2023-05-16T05:05:58.962Z,71.05
2023-05-16T05:08:27.517Z,72.23
2023-05-16T05:10:56.850Z,71.90
2023-05-16T05:13:26.641Z,71.74
2023-05-16T05:15:54.969Z,72.46
2023-05-16T05:18:23.666Z,71.67
2023-05-16T05:20:52.719Z,71.30
2023-05-16T05:23:21.452Z,71.56
2023-05-16T05:25:50.062Z,73.27
2023-05-16T05:28:18.828Z,75.44
2023-05-16T05:30:49.250Z,72.64
2023-05-16T05:33:18.925Z,75.10
2023-05-16T05:35:47.255Z,77.63
2023-05-16T05:38:16.269Z,79.49
2023-05-16T05:40:44.838Z,77.10
2023-05-16T05:43:15.413Z,76.28
2023-05-16T05:45:43.842Z,77.92
2023-05-16T05:48:13.939Z,76.76
2023-05-16T05:50:42.380Z,75.28
2023-05-16T05:53:10.809Z,76.12
2023-05-16T05:55:41.769Z,75.26
2023-05-16T05:58:10.231Z,74.03
2023-05-16T06:00:38.754Z,73.35
2023-05-16T06:03:07.363Z,74.30
2023-05-16T06:05:37.190Z,73.39
2023-05-16T06:08:05.659Z,72.67
2023-05-16T06:10:34.299Z,72.14
2023-05-16T06:13:02.716Z,71.44
2023-05-16T06:15:30.996Z,71.20
2023-05-16T06:17:59.625Z,73.79
2023-05-16T06:20:28.142Z,74.62
2023-05-16T06:23:00.182Z,73.80
2023-05-16T06:25:29.054Z,74.39
2023-05-16T06:27:57.692Z,74.85
2023-05-16T06:30:25.947Z,74.33
2023-05-16T06:32:54.544Z,74.02
2023-05-16T06:35:23.176Z,75.19
2023-05-16T06:37:51.451Z,73.84
2023-05-16T06:40:21.475Z,75.53
2023-05-16T06:42:49.946Z,74.36
2023-05-16T06:45:18.432Z,75.67
2023-05-16T06:47:47.137Z,74.09
2023-05-16T06:50:15.698Z,74.68
2023-05-16T06:52:44.543Z,76.03
2023-05-16T06:55:13.446Z,75.04
2023-05-16T06:57:43.202Z,74.42
2023-05-16T07:00:12.022Z,76.85
2023-05-16T07:02:40.703Z,77.00
2023-05-16T07:05:10.616Z,75.16
2023-05-16T07:07:39.094Z,78.18
2023-05-16T07:10:08.097Z,77.71
2023-05-16T07:12:36.891Z,78.90
2023-05-16T07:15:07.522Z,80.99
2023-05-16T07:17:36.296Z,81.93
2023-05-16T07:20:05.740Z,84.46
2023-05-16T07:22:34.251Z,88.86
2023-05-16T07:25:02.993Z,91.13
2023-05-16T07:27:32.148Z,92.92
2023-05-16T07:30:00.676Z,90.66
2023-05-16T07:32:30.703Z,92.33
2023-05-16T07:34:59.050Z,94.00
2023-05-16T07:37:28.524Z,92.65
2023-05-16T07:39:58.593Z,94.12
2023-05-16T07:42:27.017Z,92.65
2023-05-16T07:44:55.521Z,93.79
2023-05-16T07:47:24.450Z,94.53
2023-05-16T07:49:54.251Z,94.76
2023-05-16T07:52:22.724Z,92.05
2023-05-16T07:54:51.410Z,95.33
2023-05-16T07:57:19.790Z,94.81
2023-05-16T07:59:48.167Z,94.28
2023-05-16T08:02:17.119Z,93.17
2023-05-16T08:04:46.829Z,91.95
2023-05-16T08:07:16.818Z,92.50
2023-05-16T08:09:45.294Z,91.92
2023-05-16T08:12:13.944Z,90.92
2023-05-16T08:14:42.264Z,89.37
2023-05-16T08:17:10.719Z,88.14
2023-05-16T08:19:39.444Z,87.52
2023-05-16T08:22:07.953Z,91.37
2023-05-16T08:24:37.889Z,90.87
2023-05-16T08:27:06.930Z,95.11
2023-05-16T08:29:35.316Z,99.62
2023-05-16T08:32:03.790Z,99.35
2023-05-16T08:34:37.034Z,100.00
2023-05-16T08:37:05.613Z,99.84
2023-05-16T08:39:33.997Z,100.00
2023-05-16T08:42:05.321Z,99.88
2023-05-16T08:44:33.736Z,97.89
2023-05-16T08:47:03.728Z,100.00
2023-05-16T08:49:32.427Z,100.00
2023-05-16T08:52:00.900Z,100.00
2023-05-16T08:54:29.330Z,100.00
2023-05-16T08:57:00.475Z,100.00
2023-05-16T08:59:30.167Z,100.00
2023-05-16T09:01:58.787Z,100.00
2023-05-16T09:04:27.825Z,100.00
2023-05-16T09:06:56.372Z,100.00
2023-05-16T09:09:25.304Z,100.00
2023-05-16T09:11:53.635Z,100.00
2023-05-16T09:14:22.228Z,100.00
2023-05-16T09:17:06.040Z,100.00
2023-05-16T09:19:38.512Z,100.00
2023-05-16T09:22:10.233Z,100.00
2023-05-16T09:24:39.512Z,100.00
2023-05-16T09:27:11.597Z,100.00
2023-05-16T09:29:41.212Z,100.00
2023-05-16T09:32:12.259Z,100.00
2023-05-16T09:34:41.133Z,100.00
2023-05-16T09:37:10.920Z,100.00
2023-05-16T09:39:40.605Z,100.00
2023-05-16T09:42:11.747Z,100.00
2023-05-16T09:44:40.449Z,100.00
2023-05-16T09:47:08.878Z,100.00
2023-05-16T09:49:39.303Z,100.00
2023-05-16T09:52:07.964Z,100.00
2023-05-16T09:54:36.302Z,100.00
2023-05-16T09:57:04.832Z,100.00
2023-05-16T09:59:33.698Z,100.00
2023-05-16T10:02:02.074Z,100.00
2023-05-16T10:04:31.665Z,100.00
2023-05-16T10:07:01.932Z,100.00
2023-05-16T10:09:30.944Z,100.00
2023-05-16T10:12:03.119Z,99.74
2023-05-16T10:14:32.005Z,100.00
2023-05-16T10:17:00.442Z,100.00
2023-05-16T10:19:28.937Z,100.00
2023-05-16T10:21:58.980Z,100.00
2023-05-16T10:24:30.481Z,100.00
2023-05-16T10:26:59.189Z,100.00
2023-05-16T10:29:27.522Z,100.00
2023-05-16T10:31:55.983Z,100.00
2023-05-16T10:34:24.728Z,100.00
2023-05-16T10:36:53.106Z,100.00
2023-05-16T10:39:21.936Z,100.00
2023-05-16T10:41:51.913Z,100.00
2023-05-16T10:44:20.289Z,100.00
2023-05-16T10:46:48.940Z,100.00
2023-05-16T10:49:21.087Z,100.00
2023-05-16T10:51:51.347Z,100.00
2023-05-16T10:54:23.084Z,100.00
2023-05-16T10:56:57.741Z,100.00
2023-05-16T10:59:28.609Z,100.00
2023-05-16T11:01:57.609Z,100.00
2023-05-16T11:04:29.805Z,100.00
2023-05-16T11:06:59.022Z,100.00
2023-05-16T11:09:28.474Z,100.00
2023-05-16T11:12:02.853Z,100.00
2023-05-16T11:14:37.566Z,100.00
2023-05-16T11:17:08.477Z,100.00
2023-05-16T11:19:41.166Z,100.00
2023-05-16T11:22:15.697Z,100.00
2023-05-16T11:24:50.571Z,100.00
2023-05-16T11:27:24.754Z,100.00
2023-05-16T11:29:53.573Z,100.00
2023-05-16T11:32:23.047Z,100.00
2023-05-16T11:34:51.919Z,100.00
2023-05-16T11:37:21.185Z,100.00
2023-05-16T11:39:49.843Z,100.00
2023-05-16T11:42:18.993Z,100.00
2023-05-16T11:44:49.069Z,100.00
2023-05-16T11:47:17.715Z,100.00
2023-05-16T11:49:49.461Z,100.00
2023-05-16T11:52:18.337Z,100.00
2023-05-16T11:54:46.707Z,100.00
2023-05-16T11:57:15.220Z,100.00
2023-05-16T11:59:43.822Z,100.00
2023-05-16T12:02:13.545Z,100.00
2023-05-16T12:04:42.356Z,100.00
2023-05-16T12:07:10.794Z,99.47
2023-05-16T12:09:39.181Z,100.00
2023-05-16T12:12:08.955Z,100.00
2023-05-16T12:14:37.305Z,100.00
2023-05-16T12:17:06.014Z,100.00
2023-05-16T12:19:35.957Z,99.62
2023-05-16T12:22:04.431Z,100.00
2023-05-16T12:24:32.777Z,100.00
2023-05-16T12:27:01.391Z,100.00
2023-05-16T12:29:29.908Z,100.00
2023-05-16T12:31:58.502Z,100.00
2023-05-16T12:34:33.408Z,98.15
2023-05-16T12:37:03.165Z,96.50
2023-05-16T12:39:37.704Z,98.96
2023-05-16T12:42:06.563Z,100.00
2023-05-16T12:44:35.758Z,100.00
2023-05-16T12:47:04.241Z,99.96
2023-05-16T12:49:34.244Z,100.00
2023-05-16T12:52:05.822Z,94.29
2023-05-16T12:54:34.437Z,95.66
2023-05-16T12:57:03.039Z,96.32
2023-05-16T12:59:31.464Z,97.98
2023-05-16T13:01:59.850Z,96.26
2023-05-16T13:04:28.613Z,100.00
2023-05-16T13:06:59.739Z,99.88
2023-05-16T13:09:32.871Z,95.92
2023-05-16T13:12:01.599Z,96.71
2023-05-16T13:14:41.883Z,98.96
2023-05-16T13:17:12.762Z,99.33
2023-05-16T13:19:41.653Z,100.00
2023-05-16T13:22:10.009Z,100.00
2023-05-16T13:24:42.168Z,100.00
2023-05-16T13:27:10.851Z,100.00
2023-05-16T13:29:39.246Z,100.00
2023-05-16T13:32:07.833Z,100.00
2023-05-16T13:34:36.549Z,100.00
2023-05-16T13:37:05.138Z,100.00
2023-05-16T13:39:33.667Z,100.00
2023-05-16T13:42:04.228Z,100.00
2023-05-16T13:44:33.283Z,100.00
2023-05-16T13:47:01.947Z,100.00
2023-05-16T13:49:30.526Z,99.37
2023-05-16T13:51:59.158Z,100.00
2023-05-16T13:54:27.838Z,95.59
2023-05-16T13:56:56.315Z,97.40
2023-05-16T13:59:44.950Z,95.83
2023-05-16T14:02:15.013Z,92.63
2023-05-16T14:04:43.644Z,92.46
2023-05-16T14:07:12.068Z,93.11
2023-05-16T14:09:40.440Z,94.03
2023-05-16T14:12:09.571Z,94.81
2023-05-16T14:14:42.378Z,95.00
2023-05-16T14:17:11.218Z,92.03
2023-05-16T14:19:39.871Z,93.11
2023-05-16T14:22:08.339Z,90.39
2023-05-16T14:24:37.019Z,91.55
2023-05-16T14:27:05.456Z,90.69
2023-05-16T14:29:33.862Z,89.43
2023-05-16T14:32:03.986Z,88.90
2023-05-16T14:34:32.857Z,87.97
2023-05-16T14:37:01.267Z,89.47
2023-05-16T14:39:29.943Z,86.19
2023-05-16T14:41:58.298Z,86.08
2023-05-16T14:44:26.758Z,86.46
2023-05-16T14:46:55.484Z,84.45
2023-05-16T14:49:25.230Z,84.31
2023-05-16T14:51:53.660Z,80.32
2023-05-16T14:54:22.404Z,80.79
2023-05-16T14:56:50.758Z,81.85
2023-05-16T14:59:19.182Z,84.74
2023-05-16T15:01:47.867Z,84.97
2023-05-16T15:04:16.314Z,86.97
2023-05-16T15:06:46.206Z,83.95
2023-05-16T15:09:14.859Z,85.64
2023-05-16T15:11:43.229Z,84.10
2023-05-16T15:14:11.575Z,86.58
2023-05-16T15:16:40.285Z,84.65
2023-05-16T15:19:08.842Z,86.25
2023-05-16T15:21:37.634Z,89.35
2023-05-16T15:24:08.399Z,90.27
2023-05-16T15:26:37.545Z,94.07
2023-05-16T15:29:06.208Z,94.02
2023-05-16T15:31:34.793Z,96.84
2023-05-16T15:34:03.225Z,98.55
2023-05-16T15:36:31.810Z,100.00
2023-05-16T15:39:00.198Z,100.00
2023-05-16T15:41:56.355Z,100.00
2023-05-16T15:44:22.464Z,100.00
2023-05-16T15:47:08.719Z,100.00
2023-05-16T15:49:37.463Z,100.00
2023-05-16T15:52:06.165Z,100.00
2023-05-16T15:54:37.224Z,100.00
2023-05-16T15:57:09.883Z,100.00
2023-05-16T15:59:38.406Z,100.00
2023-05-16T16:02:08.024Z,100.00
2023-05-16T16:04:36.698Z,100.00
2023-05-16T16:07:05.232Z,100.00
2023-05-16T16:09:33.629Z,100.00
2023-05-16T16:12:02.542Z,100.00
2023-05-16T16:14:32.323Z,100.00
2023-05-16T16:17:00.701Z,100.00
2023-05-16T16:19:31.525Z,100.00
2023-05-16T16:21:59.951Z,100.00
2023-05-16T16:24:28.467Z,100.00
2023-05-16T16:26:57.097Z,100.00
2023-05-16T16:29:26.159Z,100.00
2023-05-16T16:31:56.219Z,100.00
2023-05-16T16:34:27.144Z,100.00
2023-05-16T16:36:55.783Z,100.00
2023-05-16T16:39:25.838Z,100.00
2023-05-16T16:41:54.209Z,100.00
2023-05-16T16:44:22.850Z,100.00
2023-05-16T16:46:51.308Z,100.00
2023-05-16T16:49:21.109Z,100.00
2023-05-16T16:51:50.088Z,100.00
2023-05-16T16:54:18.472Z,100.00
2023-05-16T16:56:47.774Z,100.00
2023-05-16T16:59:16.597Z,100.00
2023-05-16T17:01:45.494Z,100.00
2023-05-16T17:04:14.045Z,100.00
2023-05-16T17:06:45.842Z,100.00
2023-05-16T17:09:18.681Z,100.00
2023-05-16T17:11:49.500Z,100.00
2023-05-16T17:14:18.230Z,100.00
2023-05-16T17:16:46.847Z,100.00
2023-05-16T17:19:15.431Z,100.00
2023-05-16T17:21:45.387Z,100.00
2023-05-16T17:24:14.181Z,100.00
2023-05-16T17:26:43.004Z,100.00
2023-05-16T17:29:11.796Z,100.00
2023-05-16T17:31:40.463Z,100.00
2023-05-16T17:34:08.914Z,100.00
2023-05-16T17:36:38.123Z,100.00
2023-05-16T17:39:10.543Z,100.00
2023-05-16T17:41:39.258Z,100.00
2023-05-16T17:44:08.532Z,100.00
2023-05-16T17:46:38.349Z,100.00
2023-05-16T17:49:09.445Z,100.00
2023-05-16T17:51:47.903Z,100.00
2023-05-16T17:54:18.773Z,100.00
2023-05-16T17:56:47.666Z,100.00
2023-05-16T17:59:16.095Z,100.00
2023-05-16T18:01:45.621Z,100.00
2023-05-16T18:04:15.768Z,100.00
2023-05-16T18:06:44.838Z,100.00
2023-05-16T18:09:17.187Z,100.00
2023-05-16T18:11:47.273Z,100.00
2023-05-16T18:14:15.735Z,100.00
2023-05-16T18:16:44.551Z,100.00
2023-05-16T18:19:13.783Z,100.00
2023-05-16T18:21:44.751Z,97.40
2023-05-16T18:24:13.722Z,100.00
2023-05-16T18:26:44.684Z,100.00
2023-05-16T18:29:15.088Z,100.00
2023-05-16T18:31:44.196Z,100.00
2023-05-16T18:34:13.778Z,100.00
2023-05-16T18:36:42.824Z,100.00
2023-05-16T18:39:11.299Z,99.54
2023-05-16T18:41:43.255Z,100.00
2023-05-16T18:44:12.443Z,100.00
2023-05-16T18:46:42.499Z,100.00
2023-05-16T18:49:11.700Z,100.00
2023-05-16T18:51:40.739Z,100.00
2023-05-16T18:54:09.864Z,100.00
2023-05-16T18:56:40.865Z,100.00
2023-05-16T18:59:10.573Z,100.00
2023-05-16T19:01:42.679Z,100.00
2023-05-16T19:04:13.578Z,100.00
2023-05-16T19:06:42.056Z,100.00
2023-05-16T19:09:11.367Z,100.00
2023-05-16T19:11:40.984Z,100.00
2023-05-16T19:14:10.051Z,100.00
2023-05-16T19:16:39.224Z,100.00
2023-05-16T19:19:08.465Z,100.00
2023-05-16T19:21:42.504Z,100.00
2023-05-16T19:24:11.444Z,100.00
2023-05-16T19:26:41.431Z,100.00
2023-05-16T19:29:11.355Z,100.00
2023-05-16T19:31:41.130Z,100.00
2023-05-16T19:34:09.692Z,100.00
2023-05-16T19:36:39.840Z,100.00
2023-05-16T19:39:08.614Z,100.00
2023-05-16T19:41:37.046Z,100.00
2023-05-16T19:44:07.552Z,100.00
2023-05-16T19:46:36.511Z,100.00
2023-05-16T19:49:04.971Z,100.00
2023-05-16T19:51:41.833Z,100.00
2023-05-16T19:54:12.451Z,100.00
2023-05-16T19:56:40.853Z,100.00
2023-05-16T19:59:09.293Z,100.00
2023-05-16T20:01:37.971Z,100.00
2023-05-16T20:04:07.426Z,100.00
2023-05-16T20:06:36.186Z,95.03
2023-05-16T20:09:06.133Z,94.11
2023-05-16T20:11:36.538Z,89.66
2023-05-16T20:14:05.039Z,87.10
2023-05-16T20:16:33.523Z,86.37
2023-05-16T20:19:02.355Z,88.31
2023-05-16T20:21:31.300Z,86.39
2023-05-16T20:23:59.765Z,86.03
2023-05-16T20:26:28.505Z,86.15
2023-05-16T20:28:58.354Z,91.94
2023-05-16T20:31:27.135Z,93.50
2023-05-16T20:33:56.005Z,96.54
2023-05-16T20:36:24.821Z,93.41
2023-05-16T20:38:53.201Z,92.72
2023-05-16T20:41:21.955Z,90.51
2023-05-16T20:43:51.482Z,91.52
2023-05-16T20:46:21.540Z,93.14
2023-05-16T20:48:50.296Z,95.69
2023-05-16T20:51:18.750Z,90.98
2023-05-16T20:53:47.092Z,90.35
2023-05-16T20:56:15.729Z,94.37
2023-05-16T20:58:44.283Z,93.86
2023-05-16T21:01:12.635Z,95.94
2023-05-16T21:03:42.711Z,97.12
2023-05-16T21:06:11.123Z,94.75
2023-05-16T21:08:39.553Z,98.21
2023-05-16T21:11:08.221Z,92.33
2023-05-16T21:13:36.615Z,93.12
2023-05-16T21:16:05.337Z,94.59
2023-05-16T21:18:34.359Z,92.52
2023-05-16T21:21:04.172Z,90.78
2023-05-16T21:23:32.562Z,91.01
2023-05-16T21:26:01.180Z,90.26
2023-05-16T21:28:30.027Z,92.89
2023-05-16T21:31:01.565Z,93.40
2023-05-16T21:33:29.992Z,91.54
2023-05-16T21:36:00.370Z,93.67
2023-05-16T21:38:30.356Z,96.18
2023-05-16T21:41:02.696Z,94.98
2023-05-16T21:43:31.366Z,98.40
2023-05-16T21:45:59.719Z,96.47
2023-05-16T21:48:28.244Z,94.77
2023-05-16T21:50:57.089Z,91.83
2023-05-16T21:53:26.159Z,90.92
2023-05-16T21:55:55.889Z,88.94
2023-05-16T21:58:25.262Z,94.40
2023-05-16T22:00:53.881Z,94.70
2023-05-16T22:03:24.955Z,95.67
2023-05-16T22:05:53.380Z,94.35
2023-05-16T22:08:22.121Z,90.31
2023-05-16T22:10:52.467Z,89.08
2023-05-16T22:13:22.110Z,86.16
2023-05-16T22:16:03.292Z,85.27
2023-05-16T22:18:33.205Z,86.83
2023-05-16T22:21:02.306Z,87.02
2023-05-16T22:23:31.060Z,89.05
2023-05-16T22:25:59.409Z,89.63
2023-05-16T22:28:29.609Z,89.76
2023-05-16T22:30:57.975Z,86.46
2023-05-16T22:33:26.817Z,85.37
2023-05-16T22:35:55.612Z,86.40
2023-05-16T22:38:24.000Z,85.00
2023-05-16T22:40:52.392Z,83.76
2023-05-16T22:43:21.084Z,84.74
2023-05-16T22:45:51.670Z,85.71
2023-05-16T22:48:20.130Z,84.37
2023-05-16T22:50:48.811Z,87.02
2023-05-16T22:53:17.189Z,90.77
2023-05-16T22:55:45.880Z,89.02
2023-05-16T22:58:14.596Z,83.95
2023-05-16T23:00:42.915Z,84.04
2023-05-16T23:03:12.695Z,83.98
2023-05-16T23:05:41.354Z,82.83
2023-05-16T23:08:09.748Z,84.62
2023-05-16T23:10:38.450Z,88.40
2023-05-16T23:13:07.075Z,87.82
2023-05-16T23:15:35.520Z,86.88
2023-05-16T23:18:04.030Z,89.04
2023-05-16T23:20:34.162Z,86.60
2023-05-16T23:23:02.484Z,84.77
2023-05-16T23:25:31.493Z,87.25
2023-05-16T23:28:00.149Z,86.49
2023-05-16T23:30:28.495Z,88.02
2023-05-16T23:32:56.882Z,84.87
2023-05-16T23:35:25.685Z,83.92
2023-05-16T23:37:55.429Z,83.63
2023-05-16T23:40:23.781Z,82.32
2023-05-16T23:42:52.366Z,82.75
2023-05-16T23:45:20.709Z,82.05
2023-05-16T23:47:49.152Z,81.28
2023-05-16T23:50:17.861Z,80.76
2023-05-16T23:52:46.180Z,80.36
2023-05-16T23:55:16.455Z,80.42
2023-05-16T23:57:45.019Z,81.59
